Time;durP1;ratioP1;P1;durP2;ratioP2;P2;SDS_P1;SDS_P2;PMS_P1;PMS_P2;Temp;Humidity;BMP_temperature;BMP_pressure;BME280_temperature;BME280_humidity;BME280_pressure;Samples;Min_cycle;Max_cycle;Signal;HPM_P1;HPM_P2
2021/05/07 00:02:00;;;;;;;5.50;4.67;;;;;;;4.83;77.04;100860.78;5134624;27;20031;-39
2021/05/07 00:04:25;;;;;;;6.17;4.47;;;;;;;4.80;76.77;100863.81;5135353;27;20030;-39
2021/05/07 00:06:51;;;;;;;5.43;4.30;;;;;;;4.76;76.86;100875.13;5134682;27;20498;-39
2021/05/07 00:09:17;;;;;;;5.47;4.70;;;;;;;4.71;76.75;100875.69;5132943;27;20073;-39
2021/05/07 00:11:42;;;;;;;5.90;4.90;;;;;;;4.67;77.20;100865.56;5134598;27;20019;-39
2021/05/07 00:14:08;;;;;;;6.23;4.43;;;;;;;4.61;77.02;100872.50;5135089;27;20351;-39
2021/05/07 00:16:33;;;;;;;5.97;4.60;;;;;;;4.56;77.16;100869.56;5134493;27;20032;-39
2021/05/07 00:18:59;;;;;;;6.30;4.20;;;;;;;4.52;77.19;100873.66;5134111;27;20386;-39
2021/05/07 00:21:24;;;;;;;6.60;5.10;;;;;;;4.54;77.32;100868.91;5134190;27;20024;-39
2021/05/07 00:23:50;;;;;;;6.10;5.00;;;;;;;4.48;77.62;100873.19;5134481;27;20074;-39
2021/05/07 00:26:15;;;;;;;5.73;4.90;;;;;;;4.49;77.67;100874.00;5134279;27;20459;-39
2021/05/07 00:28:41;;;;;;;6.97;5.47;;;;;;;4.39;77.51;100875.19;5134775;27;20031;-39
2021/05/07 00:31:06;;;;;;;5.97;5.17;;;;;;;4.36;77.78;100874.72;5134713;27;20031;-39
2021/05/07 00:33:31;;;;;;;6.07;5.47;;;;;;;4.33;78.03;100875.09;5133885;27;20063;-39
2021/05/07 00:35:57;;;;;;;8.07;6.43;;;;;;;4.30;77.90;100872.81;5134605;27;20030;-39
2021/05/07 00:38:22;;;;;;;7.13;5.77;;;;;;;4.30;78.20;100880.84;5134233;28;20023;-39
2021/05/07 00:40:47;;;;;;;6.67;5.63;;;;;;;4.25;77.60;100877.91;5134217;28;20019;-39
2021/05/07 00:43:13;;;;;;;8.27;6.03;;;;;;;4.23;77.77;100878.06;5134037;28;20039;-38
2021/05/07 00:45:38;;;;;;;7.70;6.00;;;;;;;4.20;78.23;100874.94;5135591;27;20019;-38
2021/05/07 00:48:11;;;;;;;7.07;6.00;;;;;;;4.10;78.70;100880.63;5138432;27;20466;-38
2021/05/07 00:50:39;;;;;;;7.40;6.28;;;;;;;4.10;78.02;100886.78;5139132;27;20363;-38
2021/05/07 00:53:05;;;;;;;8.82;6.50;;;;;;;4.07;77.98;100886.34;5138301;27;20352;-38
2021/05/07 00:55:32;;;;;;;10.30;7.10;;;;;;;4.04;77.74;100890.19;5138588;27;20060;-38
2021/05/07 00:57:58;;;;;;;7.07;6.38;;;;;;;3.99;77.92;100891.78;5138103;27;20034;-38
2021/05/07 01:00:25;;;;;;;7.30;6.18;;;;;;;3.95;78.65;100893.16;5138433;27;20039;-38
2021/05/07 01:02:50;;;;;;;6.72;6.03;;;;;;;3.94;78.47;100899.53;5137713;27;20498;-38
2021/05/07 01:05:16;;;;;;;8.20;7.25;;;;;;;3.90;78.75;100890.22;5138579;27;20019;-38
2021/05/07 01:07:42;;;;;;;8.07;7.07;;;;;;;3.90;78.41;100895.56;5137981;27;20084;-38
2021/05/07 01:10:10;;;;;;;8.35;7.35;;;;;;;3.88;79.06;100896.59;5138307;27;20035;-38
2021/05/07 01:12:37;;;;;;;8.82;7.80;;;;;;;3.98;78.86;100892.81;5137887;27;20027;-38
2021/05/07 01:15:12;;;;;;;11.35;8.00;;;;;;;3.94;79.56;100894.19;5138467;27;20059;-38
2021/05/07 01:17:43;;;;;;;11.32;8.90;;;;;;;3.93;79.13;100903.22;5137905;27;20076;-39
2021/05/07 01:20:11;;;;;;;10.70;8.40;;;;;;;3.83;78.95;100904.34;5137816;27;20031;-38
2021/05/07 01:22:48;;;;;;;10.43;8.60;;;;;;;3.96;79.19;100908.22;5138054;27;20043;-38
2021/05/07 01:25:16;;;;;;;10.30;9.23;;;;;;;4.06;79.65;100917.63;5137622;27;20546;-38
2021/05/07 01:27:43;;;;;;;10.70;9.40;;;;;;;3.93;80.13;100908.59;5137938;27;20063;-38
2021/05/07 01:30:12;;;;;;;9.65;8.35;;;;;;;3.94;79.81;100911.06;5137681;27;20030;-38
2021/05/07 01:32:38;;;;;;;9.80;8.82;;;;;;;3.90;79.99;100917.81;5137751;27;20019;-38
2021/05/07 01:35:06;;;;;;;10.73;8.57;;;;;;;4.02;79.56;100920.84;5138053;27;20125;-38
2021/05/07 01:37:31;;;;;;;10.30;8.82;;;;;;;4.04;80.41;100927.66;5137750;27;20093;-38
2021/05/07 01:39:57;;;;;;;11.37;9.50;;;;;;;4.06;79.05;100931.00;5138235;27;20035;-38
2021/05/07 01:42:22;;;;;;;10.43;8.97;;;;;;;4.18;79.01;100934.03;5137719;27;20046;-38
2021/05/07 01:44:47;;;;;;;10.20;9.03;;;;;;;4.20;79.19;100932.00;5137937;27;20031;-38
2021/05/07 01:47:13;;;;;;;10.67;9.33;;;;;;;4.18;79.65;100928.66;5136973;27;20019;-38
2021/05/07 01:49:38;;;;;;;10.57;9.33;;;;;;;4.14;79.77;100930.88;5137775;27;20110;-38
2021/05/07 01:52:04;;;;;;;11.07;9.27;;;;;;;4.23;79.69;100928.09;5137209;27;20027;-38
2021/05/07 01:54:29;;;;;;;13.93;9.77;;;;;;;4.14;79.85;100933.56;5137955;27;20023;-38
2021/05/07 01:56:54;;;;;;;10.43;9.33;;;;;;;4.16;80.23;100938.75;5137504;27;20046;-39
2021/05/07 01:59:20;;;;;;;11.57;9.50;;;;;;;4.20;79.67;100934.69;5137619;27;20080;-38
2021/05/07 02:01:45;;;;;;;12.10;10.20;;;;;;;4.16;80.62;100935.25;5137542;27;20091;-39
2021/05/07 02:04:10;;;;;;;11.07;9.97;;;;;;;4.23;79.57;100942.31;5136928;27;20027;-38
2021/05/07 02:06:36;;;;;;;11.33;10.07;;;;;;;4.25;79.62;100937.63;5137013;27;20057;-38
2021/05/07 02:09:01;;;;;;;11.03;9.63;;;;;;;4.31;79.78;100946.75;5135931;27;20118;-38
2021/05/07 02:11:26;;;;;;;10.63;9.50;;;;;;;4.21;80.12;100941.69;5137476;27;20419;-39
2021/05/07 02:13:52;;;;;;;12.60;9.80;;;;;;;4.24;80.01;100932.44;5136801;27;20035;-39
2021/05/07 02:16:17;;;;;;;11.57;9.97;;;;;;;4.13;80.74;100942.59;5136820;27;20555;-39
2021/05/07 02:18:42;;;;;;;11.70;10.50;;;;;;;4.10;80.02;100939.50;5136753;27;20027;-38
2021/05/07 02:21:10;;;;;;;11.93;10.37;;;;;;;4.05;80.41;100936.53;5136812;27;20447;-39
2021/05/07 02:23:35;;;;;;;13.02;10.55;;;;;;;4.02;80.27;100937.72;5136886;27;20044;-38
2021/05/07 02:26:00;;;;;;;10.53;9.53;;;;;;;4.00;80.66;100936.25;5136954;27;20032;-38
2021/05/07 02:28:26;;;;;;;11.30;10.10;;;;;;;4.03;81.49;100935.88;5136546;27;20102;-39
2021/05/07 02:30:51;;;;;;;11.77;10.57;;;;;;;4.00;81.30;100938.91;5136318;27;20028;-38
2021/05/07 02:33:16;;;;;;;11.67;10.27;;;;;;;4.05;81.40;100934.69;5136402;27;20027;-38
2021/05/07 02:35:42;;;;;;;11.93;10.40;;;;;;;4.05;81.50;100933.84;5136245;27;20493;-38
2021/05/07 02:38:07;;;;;;;11.67;10.10;;;;;;;4.05;81.57;100931.16;5136336;27;20068;-38
2021/05/07 02:40:32;;;;;;;12.30;11.07;;;;;;;4.07;81.55;100940.69;5136384;27;20027;-38
2021/05/07 02:42:57;;;;;;;11.67;10.27;;;;;;;4.06;82.00;100943.56;5136608;27;20033;-38
2021/05/07 02:45:23;;;;;;;11.17;10.10;;;;;;;4.13;82.23;100949.81;5136482;27;20107;-38
2021/05/07 02:47:48;;;;;;;14.13;11.57;;;;;;;4.17;82.13;100943.06;5136423;27;20053;-39
2021/05/07 02:50:13;;;;;;;12.97;11.23;;;;;;;4.13;81.57;100939.09;5136141;27;20031;-39
2021/05/07 02:52:40;;;;;;;12.07;10.60;;;;;;;4.14;81.51;100941.59;5136085;27;20027;-38
2021/05/07 02:55:07;;;;;;;12.98;10.73;;;;;;;4.13;81.83;100937.25;5136018;27;20106;-39
2021/05/07 02:57:32;;;;;;;12.38;10.65;;;;;;;4.10;81.79;100926.94;5135798;27;20030;-39
2021/05/07 02:59:58;;;;;;;13.03;11.63;;;;;;;4.05;81.70;100925.81;5135736;27;20023;-39
2021/05/07 03:02:23;;;;;;;13.47;11.97;;;;;;;4.07;82.33;100926.47;5135517;27;20050;-38
2021/05/07 03:04:48;;;;;;;14.07;11.73;;;;;;;4.05;82.09;100924.00;5135744;27;20031;-39
2021/05/07 03:07:14;;;;;;;13.37;11.87;;;;;;;4.00;82.23;100921.03;5135763;27;20023;-39
2021/05/07 03:09:39;;;;;;;12.33;11.10;;;;;;;4.00;82.60;100922.88;5135365;27;20061;-38
2021/05/07 03:12:05;;;;;;;12.73;11.40;;;;;;;4.07;82.69;100929.16;5136275;27;20023;-38
2021/05/07 03:14:30;;;;;;;14.45;11.93;;;;;;;4.06;82.78;100922.97;5136354;27;20088;-38
2021/05/07 03:16:55;;;;;;;12.97;11.67;;;;;;;4.12;82.53;100921.38;5135848;27;20462;-38
2021/05/07 03:19:21;;;;;;;13.10;11.77;;;;;;;4.10;82.73;100924.25;5135254;27;20056;-39
2021/05/07 03:21:46;;;;;;;12.57;11.27;;;;;;;4.15;82.33;100918.34;5135518;27;20459;-39
2021/05/07 03:24:13;;;;;;;13.53;12.13;;;;;;;4.12;82.77;100916.03;5135369;27;20047;-38
2021/05/07 03:26:41;;;;;;;12.80;11.50;;;;;;;4.16;82.47;100928.03;5135139;27;20479;-38
2021/05/07 03:29:07;;;;;;;12.40;11.10;;;;;;;4.21;82.46;100936.34;5135778;27;20410;-38
2021/05/07 03:31:36;;;;;;;13.80;11.40;;;;;;;4.30;82.51;100955.81;5135225;27;20038;-38
2021/05/07 03:34:04;;;;;;;12.65;11.30;;;;;;;4.32;81.87;100976.00;5134933;27;20498;-38
2021/05/07 03:36:30;;;;;;;13.45;10.88;;;;;;;4.29;81.96;100981.72;5135267;27;20031;-38
2021/05/07 03:38:56;;;;;;;12.98;11.45;;;;;;;4.28;82.09;100971.19;5135160;27;20098;-38
2021/05/07 03:41:22;;;;;;;14.27;11.80;;;;;;;4.20;82.54;100968.63;5135594;27;20108;-38
2021/05/07 03:43:47;;;;;;;13.37;10.70;;;;;;;4.16;82.37;100965.50;5134780;27;20502;-38
2021/05/07 03:46:12;;;;;;;12.00;10.27;;;;;;;4.17;82.60;100972.50;5135429;27;20114;-38
2021/05/07 03:48:38;;;;;;;9.77;8.77;;;;;;;4.24;81.57;100962.72;5135627;27;20059;-38
2021/05/07 03:51:04;;;;;;;11.97;10.70;;;;;;;4.21;82.73;100960.44;5135174;27;20034;-38
2021/05/07 03:53:29;;;;;;;14.67;12.37;;;;;;;4.08;83.38;100947.69;5135319;27;20063;-38
2021/05/07 03:55:56;;;;;;;14.70;12.40;;;;;;;3.92;83.68;100955.91;5134607;27;20033;-38
2021/05/07 03:58:22;;;;;;;12.93;11.57;;;;;;;3.94;84.25;100953.03;5134785;27;20042;-38
2021/05/07 04:00:47;;;;;;;13.23;11.70;;;;;;;4.01;83.78;100951.31;5135105;27;20027;-39
2021/05/07 04:03:12;;;;;;;12.37;11.07;;;;;;;4.04;83.67;100942.88;5135299;27;20031;-39
2021/05/07 04:05:38;;;;;;;13.57;11.80;;;;;;;4.00;84.15;100942.47;5135009;27;20026;-39
2021/05/07 04:10:36;;;;;;;11.10;9.60;;;;;;;4.01;83.09;100996.81;5134701;27;20467;-38
2021/05/07 04:15:27;;;;;;;11.77;10.50;;;;;;;3.98;83.58;101027.41;5134626;27;20070;-39
2021/05/07 04:17:52;;;;;;;10.73;9.60;;;;;;;3.94;82.62;101062.75;5134231;27;20027;-39
2021/05/07 04:20:18;;;;;;;6.97;6.13;;;;;;;3.87;80.73;101098.25;5134818;27;20526;-38
2021/05/07 04:22:43;;;;;;;4.53;4.07;;;;;;;3.67;79.88;101099.78;5134591;27;20104;-38
2021/05/07 04:25:10;;;;;;;4.60;3.70;;;;;;;3.39;79.83;101101.31;5134938;27;20114;-38
2021/05/07 04:27:36;;;;;;;4.90;3.75;;;;;;;3.26;79.78;101092.03;5134903;27;20035;-39
2021/05/07 04:30:03;;;;;;;4.05;2.88;;;;;;;3.01;79.23;101087.84;5134102;27;20142;-38
2021/05/07 04:32:29;;;;;;;3.13;2.30;;;;;;;2.85;78.77;101075.41;5134103;27;20031;-39
2021/05/07 04:34:54;;;;;;;3.23;2.50;;;;;;;2.58;78.87;101077.53;5134733;27;20027;-39
2021/05/07 04:37:19;;;;;;;3.20;2.30;;;;;;;2.47;79.43;101098.44;5134041;27;20463;-39
2021/05/07 04:39:45;;;;;;;2.60;2.07;;;;;;;2.39;79.67;101099.31;5134934;27;20476;-39
2021/05/07 04:42:10;;;;;;;3.63;2.53;;;;;;;2.23;80.25;101097.50;5134328;28;20102;-39
2021/05/07 04:44:36;;;;;;;3.00;2.50;;;;;;;2.14;79.92;101097.69;5134493;28;20118;-39
2021/05/07 04:47:02;;;;;;;3.63;2.53;;;;;;;2.25;80.72;101102.69;5134506;28;20114;-40
2021/05/07 04:49:27;;;;;;;3.77;2.07;;;;;;;2.29;80.67;101091.50;5134200;28;20059;-39
2021/05/07 04:51:53;;;;;;;4.65;2.28;;;;;;;2.13;80.45;101094.19;5134343;28;20020;-39
2021/05/07 04:54:18;;;;;;;4.20;2.90;;;;;;;1.92;80.86;101096.56;5134141;28;20428;-39
2021/05/07 04:56:44;;;;;;;3.67;2.60;;;;;;;1.99;81.33;101106.38;5134665;28;20062;-39
2021/05/07 04:59:09;;;;;;;2.93;2.57;;;;;;;2.03;82.04;101105.03;5134135;28;20034;-40
2021/05/07 05:01:35;;;;;;;3.73;2.47;;;;;;;1.98;81.33;101115.38;5134136;28;20015;-39
2021/05/07 05:04:00;;;;;;;3.07;2.70;;;;;;;2.03;81.50;101112.22;5133983;28;20418;-39
2021/05/07 05:06:25;;;;;;;6.07;3.27;;;;;;;1.82;80.95;101122.56;5134068;28;20023;-40
2021/05/07 05:08:50;;;;;;;3.43;2.80;;;;;;;1.85;81.46;101127.53;5134227;28;20039;-40
2021/05/07 05:11:16;;;;;;;3.53;2.73;;;;;;;1.87;81.19;101137.06;5134501;28;20041;-39
2021/05/07 05:13:41;;;;;;;5.37;3.33;;;;;;;1.66;80.95;101134.91;5134185;28;20518;-40
2021/05/07 05:16:07;;;;;;;4.07;3.00;;;;;;;1.64;81.94;101131.53;5134816;28;20028;-40
2021/05/07 05:18:35;;;;;;;3.20;2.55;;;;;;;1.65;82.47;101133.22;5133843;28;20379;-40
2021/05/07 05:21:05;;;;;;;4.07;3.25;;;;;;;1.40;83.11;101145.66;5134375;28;20035;-40
2021/05/07 05:23:31;;;;;;;4.15;2.95;;;;;;;1.54;83.23;101142.38;5133903;28;20359;-40
2021/05/07 05:25:57;;;;;;;4.20;2.80;;;;;;;1.62;82.73;101141.56;5134300;28;20050;-40
2021/05/07 05:28:23;;;;;;;4.63;3.70;;;;;;;1.57;82.70;101151.88;5134118;28;20031;-40
2021/05/07 05:30:49;;;;;;;3.85;3.45;;;;;;;1.71;82.47;101159.22;5134186;27;20023;-40
2021/05/07 05:33:14;;;;;;;4.60;3.47;;;;;;;1.76;82.80;101159.56;5137240;27;20057;-40
2021/05/07 05:35:40;;;;;;;3.60;3.30;;;;;;;1.91;83.04;101166.91;5138026;27;20192;-40
2021/05/07 05:38:06;;;;;;;3.83;3.28;;;;;;;1.89;81.97;101171.56;5137389;27;20031;-40
2021/05/07 05:40:32;;;;;;;3.88;3.42;;;;;;;2.00;82.45;101171.22;5137979;27;20508;-40
2021/05/07 05:42:58;;;;;;;4.03;3.50;;;;;;;1.96;81.70;101178.75;5137874;27;20046;-40
2021/05/07 05:45:26;;;;;;;4.45;3.85;;;;;;;2.12;82.32;101183.22;5137398;27;20019;-40
2021/05/07 05:48:13;;;;;;;3.78;3.33;;;;;;;2.28;81.91;101188.53;5137136;27;20038;-40
2021/05/07 05:50:40;;;;;;;5.03;4.00;;;;;;;2.40;82.13;101190.88;5137513;27;20112;-40
2021/05/07 05:53:06;;;;;;;4.35;3.90;;;;;;;2.42;81.07;101199.56;5137974;27;20030;-40
2021/05/07 05:55:32;;;;;;;3.97;3.58;;;;;;;2.56;81.50;101198.84;5137695;27;20428;-40
2021/05/07 05:57:58;;;;;;;5.45;3.78;;;;;;;2.68;82.39;101202.00;5137106;27;20027;-40
2021/05/07 06:00:23;;;;;;;4.00;3.60;;;;;;;2.85;80.62;101200.97;5137252;27;20550;-40
2021/05/07 06:02:49;;;;;;;4.70;4.10;;;;;;;3.12;80.61;101213.03;5137210;27;20023;-40
2021/05/07 06:05:16;;;;;;;6.03;3.92;;;;;;;3.14;79.92;101211.03;5137453;27;20080;-39
2021/05/07 06:07:42;;;;;;;3.85;3.45;;;;;;;3.21;79.94;101219.19;5137355;27;20084;-40
2021/05/07 06:10:10;;;;;;;4.13;3.55;;;;;;;3.30;79.25;101226.16;5137654;27;20035;-40
2021/05/07 06:12:35;;;;;;;4.45;4.00;;;;;;;3.26;79.32;101238.22;5137116;27;20023;-40
2021/05/07 06:15:01;;;;;;;4.50;3.50;;;;;;;3.24;79.66;101240.22;5136584;27;20391;-40
2021/05/07 06:17:27;;;;;;;4.33;3.50;;;;;;;3.18;79.96;101249.78;5136598;27;20058;-40
2021/05/07 06:19:52;;;;;;;5.68;4.43;;;;;;;3.17;79.04;101252.59;5136803;27;20023;-40
2021/05/07 06:22:18;;;;;;;4.13;3.73;;;;;;;3.16;79.89;101259.78;5137012;27;20023;-39
2021/05/07 06:24:43;;;;;;;4.77;3.80;;;;;;;3.14;79.54;101272.50;5136912;27;20122;-40
2021/05/07 06:27:08;;;;;;;3.93;3.53;;;;;;;3.15;79.81;101265.31;5136682;27;20038;-39
2021/05/07 06:29:34;;;;;;;3.93;3.53;;;;;;;3.04;79.04;101271.88;5136984;27;20031;-40
2021/05/07 06:32:00;;;;;;;3.67;3.33;;;;;;;3.05;79.74;101287.72;5137100;27;20413;-39
2021/05/07 06:34:25;;;;;;;4.10;3.70;;;;;;;3.06;80.10;101278.69;5136762;27;20109;-39
2021/05/07 06:36:51;;;;;;;5.30;4.17;;;;;;;3.09;79.92;101281.03;5136811;27;20523;-39
2021/05/07 06:39:16;;;;;;;4.30;3.77;;;;;;;3.19;80.01;101291.53;5136752;27;20046;-40
2021/05/07 06:41:42;;;;;;;4.30;3.80;;;;;;;3.42;80.09;101299.66;5136704;27;20519;-39
2021/05/07 06:44:07;;;;;;;6.23;3.90;;;;;;;3.63;79.53;101298.22;5135392;27;20031;-40
2021/05/07 06:46:33;;;;;;;4.97;4.00;;;;;;;3.70;79.46;101308.03;5135594;27;20115;-39
2021/05/07 06:48:58;;;;;;;4.20;3.80;;;;;;;3.75;78.84;101311.00;5136259;27;20386;-39
2021/05/07 06:51:24;;;;;;;4.17;3.77;;;;;;;3.80;79.70;101314.00;5136560;27;20023;-39
2021/05/07 06:53:49;;;;;;;4.30;3.90;;;;;;;3.97;79.38;101319.28;5136223;27;20031;-39
2021/05/07 06:56:19;;;;;;;4.70;3.33;;;;;;;4.18;78.90;101319.47;5136624;27;20062;-39
2021/05/07 06:58:45;;;;;;;4.00;3.50;;;;;;;4.37;77.69;101323.53;5136344;27;20469;-40
2021/05/07 07:01:11;;;;;;;5.67;3.83;;;;;;;4.30;78.38;101323.41;5136079;27;20105;-39
2021/05/07 07:03:36;;;;;;;4.35;3.70;;;;;;;4.49;77.65;101318.56;5135751;27;20075;-39
2021/05/07 07:06:03;;;;;;;4.18;3.78;;;;;;;4.65;77.71;101334.53;5136409;27;20051;-39
2021/05/07 07:08:28;;;;;;;4.20;3.80;;;;;;;4.69;77.41;101332.34;5136061;27;20031;-37
2021/05/07 07:10:53;;;;;;;3.10;2.80;;;;;;;4.75;75.51;101342.31;5136062;27;20050;-37
2021/05/07 07:13:19;;;;;;;4.20;2.80;;;;;;;4.85;76.40;101356.28;5136461;27;20051;-38
2021/05/07 07:15:44;;;;;;;4.13;3.37;;;;;;;4.95;76.36;101342.66;5136267;27;20354;-39
2021/05/07 07:18:10;;;;;;;3.50;3.20;;;;;;;4.91;76.63;101356.41;5135599;27;20455;-39
2021/05/07 07:20:35;;;;;;;3.80;3.50;;;;;;;4.89;77.29;101363.78;5135687;27;20023;-39
2021/05/07 07:23:00;;;;;;;4.03;3.60;;;;;;;4.99;78.42;101365.41;5135564;27;20130;-39
2021/05/07 07:25:27;;;;;;;4.13;3.50;;;;;;;5.06;77.62;101369.81;5135689;27;20087;-39
2021/05/07 07:27:53;;;;;;;5.10;3.40;;;;;;;5.04;78.48;101369.19;5135619;27;20119;-37
2021/05/07 07:30:19;;;;;;;3.75;3.00;;;;;;;5.13;77.83;101376.13;5135141;27;20447;-39
2021/05/07 07:32:44;;;;;;;3.13;2.83;;;;;;;5.20;76.92;101386.97;5135307;27;20030;-39
2021/05/07 07:35:10;;;;;;;3.83;3.20;;;;;;;5.31;77.96;101386.50;5135352;27;20031;-39
2021/05/07 07:37:36;;;;;;;5.72;3.38;;;;;;;5.38;75.97;101392.00;5135417;27;20547;-39
2021/05/07 07:40:04;;;;;;;6.00;4.15;;;;;;;5.45;76.73;101394.75;5135458;27;20402;-38
2021/05/07 07:42:29;;;;;;;3.22;2.88;;;;;;;5.49;76.67;101401.44;5135373;27;20065;-38
2021/05/07 07:44:54;;;;;;;3.10;2.80;;;;;;;5.53;76.61;101405.41;5135075;27;20503;-39
2021/05/07 07:47:20;;;;;;;4.57;3.10;;;;;;;5.60;76.36;101403.66;5134888;27;20112;-39
2021/05/07 07:49:45;;;;;;;3.87;3.00;;;;;;;5.72;76.64;101412.91;5134859;27;20030;-39
2021/05/07 07:52:10;;;;;;;4.90;3.37;;;;;;;5.70;76.68;101417.63;5134811;27;20058;-40
2021/05/07 07:54:36;;;;;;;3.63;3.10;;;;;;;5.71;76.33;101419.31;5135586;27;20110;-39
2021/05/07 07:57:01;;;;;;;3.27;2.93;;;;;;;5.82;76.69;101420.69;5134974;27;20031;-39
2021/05/07 07:59:26;;;;;;;4.67;3.40;;;;;;;6.03;76.98;101410.03;5135052;27;20019;-39
2021/05/07 08:01:51;;;;;;;5.70;3.33;;;;;;;6.14;75.96;101406.88;5135149;27;20023;-39
2021/05/07 08:04:17;;;;;;;4.07;3.67;;;;;;;6.18;76.25;101418.06;5135220;27;20027;-40
2021/05/07 08:06:46;;;;;;;3.38;3.08;;;;;;;6.13;76.87;101409.75;5133782;27;20046;-39
2021/05/07 08:09:12;;;;;;;3.70;3.05;;;;;;;6.19;75.94;101425.94;5135002;27;20054;-39
2021/05/07 08:11:38;;;;;;;3.63;3.33;;;;;;;6.39;78.65;101418.13;5135019;27;20110;-39
2021/05/07 08:14:03;;;;;;;4.20;3.17;;;;;;;6.52;76.33;101419.28;5135026;27;20443;-39
2021/05/07 08:16:29;;;;;;;2.97;2.63;;;;;;;6.47;74.70;101422.56;5135019;27;20046;-39
2021/05/07 08:18:55;;;;;;;4.65;3.10;;;;;;;6.60;75.85;101432.63;5135389;27;20019;-39
2021/05/07 08:21:22;;;;;;;3.45;3.00;;;;;;;6.78;76.00;101435.69;5134650;27;20402;-39
2021/05/07 08:23:48;;;;;;;4.30;3.10;;;;;;;6.75;74.13;101440.63;5134767;27;20047;-39
2021/05/07 08:26:13;;;;;;;7.07;3.40;;;;;;;6.67;74.62;101439.72;5134474;27;20448;-39
2021/05/07 08:28:38;;;;;;;4.17;2.93;;;;;;;6.80;75.29;101448.94;5134774;27;20028;-40
2021/05/07 08:31:04;;;;;;;6.50;2.97;;;;;;;7.03;74.60;101444.22;5134261;27;20360;-39
2021/05/07 08:33:29;;;;;;;3.37;3.07;;;;;;;7.13;74.64;101458.16;5134081;27;20102;-39
2021/05/07 08:35:54;;;;;;;4.07;3.30;;;;;;;7.30;75.44;101461.41;5134466;27;20378;-39
2021/05/07 08:38:20;;;;;;;3.43;2.90;;;;;;;7.25;72.47;101468.41;5134576;27;20046;-39
2021/05/07 08:40:46;;;;;;;4.57;3.25;;;;;;;7.34;73.21;101468.06;5134654;27;20132;-40
2021/05/07 08:43:13;;;;;;;6.73;3.20;;;;;;;7.38;73.15;101473.91;5134369;28;20515;-39
2021/05/07 08:45:40;;;;;;;3.75;2.88;;;;;;;7.42;72.69;101478.69;5133911;28;20024;-39
2021/05/07 08:48:06;;;;;;;4.80;3.08;;;;;;;7.59;72.84;101486.47;5134730;28;20030;-39
2021/05/07 08:50:31;;;;;;;3.83;2.90;;;;;;;7.84;73.46;101482.31;5134482;28;20033;-39
2021/05/07 08:52:57;;;;;;;3.58;2.85;;;;;;;7.93;72.94;101486.50;5134530;28;20027;-39
2021/05/07 08:55:22;;;;;;;5.00;3.10;;;;;;;8.04;72.26;101495.06;5134496;28;20056;-39
2021/05/07 08:57:47;;;;;;;3.90;2.77;;;;;;;8.23;71.68;101484.38;5134513;28;20091;-39
2021/05/07 09:00:13;;;;;;;5.67;2.93;;;;;;;8.31;70.41;101493.34;5134768;28;20023;-39
2021/05/07 09:02:39;;;;;;;3.15;2.35;;;;;;;8.43;71.23;101484.50;5134302;28;20072;-39
2021/05/07 09:05:05;;;;;;;3.10;2.80;;;;;;;8.63;70.30;101498.06;5134343;28;20439;-39
2021/05/07 09:07:30;;;;;;;3.47;2.78;;;;;;;8.95;67.78;101492.97;5136791;27;20031;-39
2021/05/07 09:09:59;;;;;;;3.70;2.80;;;;;;;9.23;66.28;101496.34;5138543;27;20031;-39
2021/05/07 09:12:36;;;;;;;3.30;2.60;;;;;;;9.13;67.80;101501.31;5138443;27;20023;-39
2021/05/07 09:15:05;;;;;;;3.70;2.80;;;;;;;8.91;65.89;101507.91;5138924;27;20110;-39
2021/05/07 09:17:30;;;;;;;7.13;3.03;;;;;;;8.83;66.79;101510.75;5137848;27;20405;-39
2021/05/07 09:20:09;;;;;;;4.95;3.10;;;;;;;8.68;66.68;101511.75;5138167;27;20034;-40
2021/05/07 09:22:36;;;;;;;5.57;3.33;;;;;;;8.48;66.64;101517.06;5138096;27;20383;-39
2021/05/07 09:25:04;;;;;;;;;;;;;;;8.57;65.29;101527.69;5138669;27;20074;-39
2021/05/07 09:27:30;;;;;;;3.10;2.67;;;;;;;8.39;65.18;101526.34;5137713;27;19915;-39
2021/05/07 09:29:55;;;;;;;3.78;2.75;;;;;;;8.51;66.64;101530.16;5138439;27;20028;-39
2021/05/07 09:32:31;;;;;;;4.43;2.77;;;;;;;8.80;67.26;101539.00;5137817;27;20042;-39
2021/05/07 09:35:17;;;;;;;3.50;2.75;;;;;;;9.19;66.68;101537.44;5138653;27;20042;-40
2021/05/07 09:37:44;;;;;;;4.60;3.00;;;;;;;9.28;67.33;101536.22;5137426;27;20039;-40
2021/05/07 09:40:18;;;;;;;4.45;2.90;;;;;;;9.53;65.07;101539.97;5137682;27;20022;-39
2021/05/07 09:42:45;;;;;;;3.67;2.60;;;;;;;9.78;64.45;101540.16;5137794;27;20160;-40
2021/05/07 09:45:24;;;;;;;3.50;2.63;;;;;;;10.02;63.00;101541.38;5137987;27;20027;-39
2021/05/07 09:47:51;;;;;;;3.15;2.40;;;;;;;10.20;60.26;101542.59;5137478;27;20023;-41
2021/05/07 09:50:19;;;;;;;4.40;2.60;;;;;;;10.33;60.55;101542.59;5138151;27;20019;-40
2021/05/07 09:52:48;;;;;;;3.00;1.85;;;;;;;10.38;57.33;101540.06;5136813;27;20023;-40
2021/05/07 09:55:14;;;;;;;3.47;2.17;;;;;;;10.51;56.79;101544.63;5137377;27;20114;-41
2021/05/07 09:57:40;;;;;;;4.40;2.28;;;;;;;10.64;56.83;101549.13;5137157;27;20098;-39
2021/05/07 10:00:06;;;;;;;;;;;;;;;10.94;56.95;101550.28;5137725;27;20030;-39
2021/05/07 10:02:32;;;;;;;4.85;2.53;;;;;;;10.97;57.42;101549.00;5136921;27;19908;-39
2021/05/07 10:04:58;;;;;;;3.17;2.13;;;;;;;10.95;55.25;101554.63;5136703;27;20027;-39
2021/05/07 10:07:24;;;;;;;3.00;2.00;;;;;;;10.73;54.60;101561.38;5136877;27;20031;-39
2021/05/07 10:09:49;;;;;;;3.00;2.03;;;;;;;10.68;52.96;101563.91;5137297;27;20317;-39
2021/05/07 10:12:18;;;;;;;4.87;2.30;;;;;;;10.58;52.80;101570.59;5137738;27;20023;-39
2021/05/07 10:14:46;;;;;;;3.45;2.08;;;;;;;10.74;53.83;101573.88;5137430;27;20639;-39
2021/05/07 10:17:12;;;;;;;3.53;2.20;;;;;;;10.71;53.59;101569.72;5137299;27;20031;-39
2021/05/07 10:19:44;;;;;;;7.18;2.33;;;;;;;10.55;55.87;101571.03;5137215;27;20035;-39
2021/05/07 10:22:11;;;;;;;4.90;2.42;;;;;;;10.46;55.63;101576.88;5136880;27;20027;-39
2021/05/07 10:24:38;;;;;;;3.47;2.50;;;;;;;10.53;56.17;101581.22;5136630;27;20050;-39
2021/05/07 10:27:22;;;;;;;5.63;2.50;;;;;;;10.74;56.60;101582.00;5136746;27;20039;-39
2021/05/07 10:29:52;;;;;;;2.88;2.38;;;;;;;11.11;56.26;101585.75;5136981;27;20031;-39
2021/05/07 10:32:30;;;;;;;3.58;2.60;;;;;;;11.33;54.91;101589.00;5137012;27;20087;-39
2021/05/07 10:34:55;;;;;;;3.47;2.67;;;;;;;11.24;53.36;101595.72;5136864;27;20067;-38
2021/05/07 10:37:20;;;;;;;3.50;2.23;;;;;;;11.16;52.91;101587.81;5136851;27;20030;-38
2021/05/07 10:39:53;;;;;;;3.50;2.17;;;;;;;11.39;54.75;101582.69;5136760;27;20023;-38
2021/05/07 10:42:20;;;;;;;3.88;2.55;;;;;;;11.52;52.41;101579.06;5137071;27;20107;-39
2021/05/07 10:44:46;;;;;;;2.72;2.13;;;;;;;11.84;53.32;101579.88;5136014;27;20053;-39
2021/05/07 10:47:11;;;;;;;3.00;2.10;;;;;;;12.10;52.55;101584.22;5137002;27;20035;-39
2021/05/07 10:49:41;;;;;;;2.53;2.10;;;;;;;12.37;51.55;101582.09;5136878;27;20463;-38
2021/05/07 10:52:09;;;;;;;2.95;1.80;;;;;;;12.34;47.49;101587.97;5137109;27;20048;-39
2021/05/07 10:54:41;;;;;;;2.25;1.95;;;;;;;12.05;48.65;101584.94;5136500;27;20351;-38
2021/05/07 10:57:22;;;;;;;4.07;2.50;;;;;;;11.99;51.47;101590.38;5135892;27;20027;-39
2021/05/07 11:00:17;;;;;;;4.95;2.47;;;;;;;11.99;50.63;101604.75;5135905;27;20542;-38
2021/05/07 11:02:54;;;;;;;3.28;2.25;;;;;;;12.05;50.13;101601.19;5093490;28;20142;-39
2021/05/07 11:05:46;;;;;;;2.28;1.83;;;;;;;11.89;50.62;101601.72;5076065;28;20024;-38
2021/05/07 11:08:11;;;;;;;3.90;1.70;;;;;;;11.66;49.60;101602.28;5093283;28;20152;-39
2021/05/07 11:10:37;;;;;;;1.90;1.50;;;;;;;11.54;49.39;101599.47;5092760;28;20495;-39
2021/05/07 11:13:05;;;;;;;2.42;1.77;;;;;;;11.42;47.87;101611.19;5092700;28;20036;-39
2021/05/07 11:15:30;;;;;;;4.65;1.75;;;;;;;11.33;47.42;101613.34;5092637;28;20066;-38
2021/05/07 11:18:11;;;;;;;3.33;1.63;;;;;;;11.24;47.33;101615.47;5092546;28;20028;-38
2021/05/07 11:20:41;;;;;;;4.00;2.05;;;;;;;11.50;49.02;101609.06;5092960;28;20441;-38
2021/05/07 11:23:10;;;;;;;2.80;1.65;;;;;;;11.93;48.44;101602.94;5092335;28;20028;-38
2021/05/07 11:25:37;;;;;;;2.97;2.00;;;;;;;12.42;48.63;101612.09;5092170;28;20052;-38
2021/05/07 11:28:13;;;;;;;3.53;1.58;;;;;;;12.59;45.12;101615.03;5092171;28;20031;-38
2021/05/07 11:30:50;;;;;;;3.43;1.90;;;;;;;12.70;45.11;101616.19;5092192;28;20087;-38
2021/05/07 11:33:18;;;;;;;3.17;1.73;;;;;;;12.89;45.19;101615.13;5092876;28;20047;-38